Time;durP1;ratioP1;P1;durP2;ratioP2;P2;SDS_P1;SDS_P2;PMS_P1;PMS_P2;Temp;Humidity;BMP_temperature;BMP_pressure;BME280_temperature;BME280_humidity;BME280_pressure;Samples;Min_cycle;Max_cycle;Signal;HPM_P1;HPM_P2
2024/01/14 00:00:22;;;;;;;;;;;3.40;99.90;;;;;;5113674;27;19946;-33
2024/01/14 00:02:49;;;;;;;;;;;3.40;99.90;;;;;;5132732;27;19977;-34
2024/01/14 00:05:16;;;;;;;;;;;3.40;99.90;;;;;;5112637;27;20036;-33
2024/01/14 00:07:42;;;;;;;;;;;3.40;99.90;;;;;;5131558;27;19975;-34
2024/01/14 00:10:09;;;;;;;;;;;3.40;99.90;;;;;;5121526;27;19959;-32
2024/01/14 00:12:36;;;;;;;;;;;3.30;99.90;;;;;;5114034;27;20361;-32
2024/01/14 00:15:03;;;;;;;;;;;3.30;99.90;;;;;;5110279;27;19965;-32
2024/01/14 00:17:31;;;;;;;;;;;3.30;99.90;;;;;;5113447;27;20286;-32
2024/01/14 00:19:58;;;;;;;;;;;3.30;99.90;;;;;;5129129;27;19930;-32
2024/01/14 00:22:24;;;;;;;;;;;3.30;99.90;;;;;;5129291;27;19971;-33
2024/01/14 00:24:51;;;;;;;;;;;3.40;99.90;;;;;;5111235;28;19924;-32
2024/01/14 00:27:18;;;;;;;;;;;3.40;99.90;;;;;;5111446;28;19927;-33
2024/01/14 00:29:45;;;;;;;;;;;3.40;99.90;;;;;;5114850;27;19931;-33
2024/01/14 00:32:11;;;;;;;;;;;3.40;99.90;;;;;;5125909;27;20303;-33
2024/01/14 00:34:41;;;;;;;;;;;3.40;99.90;;;;;;5114081;27;20027;-33
2024/01/14 00:37:07;;;;;;;;;;;3.40;99.90;;;;;;5112791;27;19923;-34
2024/01/14 00:39:37;;;;;;;;;;;3.40;99.90;;;;;;5130140;27;19924;-33
2024/01/14 00:42:03;;;;;;;;;;;3.40;99.90;;;;;;5110735;28;19976;-32
2024/01/14 00:44:30;;;;;;;;;;;3.40;99.90;;;;;;5114037;28;20593;-32
2024/01/14 00:46:57;;;;;;;;;;;3.40;99.90;;;;;;5101339;28;19923;-34
2024/01/14 00:49:24;;;;;;;;;;;3.40;99.90;;;;;;5109524;28;19977;-32
2024/01/14 00:51:51;;;;;;;;;;;3.50;99.90;;;;;;5117570;28;20302;-32
2024/01/14 00:54:18;;;;;;;;;;;3.50;99.90;;;;;;5110032;28;19945;-33
2024/01/14 00:56:45;;;;;;;;;;;3.50;99.90;;;;;;5113436;28;19924;-32
2024/01/14 00:59:12;;;;;;;;;;;3.50;99.90;;;;;;5100371;28;19924;-32
2024/01/14 01:01:39;;;;;;;;;;;3.50;99.90;;;;;;5128394;27;20458;-33
2024/01/14 01:04:05;;;;;;;;;;;3.50;99.90;;;;;;5112798;28;19923;-32
2024/01/14 01:06:32;;;;;;;;;;;3.50;99.90;;;;;;5111492;28;19972;-34
2024/01/14 01:09:00;;;;;;;;;;;3.50;99.90;;;;;;5111536;28;19985;-33
2024/01/14 01:11:28;;;;;;;;;;;3.60;99.90;;;;;;5111849;28;20788;-33
2024/01/14 01:13:55;;;;;;;;;;;3.50;99.90;;;;;;5126709;28;20012;-33
2024/01/14 01:16:21;;;;;;;;;;;3.60;99.90;;;;;;5114425;28;19977;-32
2024/01/14 01:18:48;;;;;;;;;;;3.60;99.90;;;;;;5110581;28;20370;-33
2024/01/14 01:21:18;;;;;;;;;;;3.70;99.90;;;;;;5132333;28;19924;-33
2024/01/14 01:23:43;;;;;;;;;;;3.70;99.90;;;;;;5100180;28;19923;-33
2024/01/14 01:26:11;;;;;;;;;;;3.70;99.90;;;;;;5105153;28;19964;-33
2024/01/14 01:28:38;;;;;;;;;;;3.80;99.90;;;;;;5111021;28;19968;-34
2024/01/14 01:31:05;;;;;;;;;;;3.80;99.90;;;;;;5112267;28;19923;-33
2024/01/14 01:33:31;;;;;;;;;;;3.80;99.90;;;;;;5113571;28;20298;-32
2024/01/14 01:35:58;;;;;;;;;;;3.80;99.90;;;;;;5116525;28;19954;-34
2024/01/14 01:38:24;;;;;;;;;;;3.80;99.90;;;;;;5130814;28;20316;-32
2024/01/14 01:40:51;;;;;;;;;;;3.90;99.90;;;;;;5111436;28;20336;-32
2024/01/14 01:43:19;;;;;;;;;;;3.90;99.90;;;;;;5130735;28;20346;-32
2024/01/14 01:45:46;;;;;;;;;;;3.90;99.90;;;;;;5112422;28;19923;-33
2024/01/14 01:48:12;;;;;;;;;;;3.90;99.90;;;;;;5113632;28;20013;-33
2024/01/14 01:50:39;;;;;;;;;;;3.90;99.90;;;;;;5132053;28;20370;-33
2024/01/14 01:53:05;;;;;;;;;;;3.80;99.90;;;;;;5113470;28;19923;-33
2024/01/14 01:55:32;;;;;;;;;;;3.80;99.90;;;;;;5125465;27;19980;-33
2024/01/14 01:57:59;;;;;;;;;;;3.90;99.90;;;;;;5114667;27;19923;-33
2024/01/14 02:00:27;;;;;;;;;;;3.80;99.90;;;;;;5131875;27;19923;-34
2024/01/14 02:02:54;;;;;;;;;;;3.90;99.90;;;;;;5106719;27;19924;-32
2024/01/14 02:05:21;;;;;;;;;;;3.90;99.90;;;;;;5108550;28;19924;-32
2024/01/14 02:07:47;;;;;;;;;;;3.80;99.90;;;;;;5131662;27;19932;-32
2024/01/14 02:10:14;;;;;;;;;;;3.80;99.90;;;;;;5127769;27;19967;-34
2024/01/14 02:12:41;;;;;;;;;;;3.80;99.90;;;;;;5106756;27;19927;-34
2024/01/14 02:15:08;;;;;;;;;;;3.80;99.90;;;;;;5109211;27;19968;-34
2024/01/14 02:17:36;;;;;;;;;;;3.80;99.90;;;;;;5133946;27;19972;-33
2024/01/14 02:20:02;;;;;;;;;;;3.70;99.90;;;;;;5106020;27;20424;-32
2024/01/14 02:22:29;;;;;;;;;;;3.70;99.90;;;;;;5106555;28;19978;-33
2024/01/14 02:24:57;;;;;;;;;;;3.60;99.90;;;;;;5110800;27;19923;-32
2024/01/14 02:27:24;;;;;;;;;;;3.70;99.90;;;;;;5114899;27;20380;-33
2024/01/14 02:29:50;;;;;;;;;;;3.60;99.90;;;;;;5110964;28;19924;-32
2024/01/14 02:32:17;;;;;;;;;;;3.60;99.90;;;;;;5127457;27;19928;-34
2024/01/14 02:34:44;;;;;;;;;;;3.50;99.90;;;;;;5101905;27;19928;-34
2024/01/14 02:37:10;;;;;;;;;;;3.60;99.90;;;;;;5111211;28;19924;-32
2024/01/14 02:39:37;;;;;;;;;;;3.50;99.90;;;;;;5113291;27;20359;-33
2024/01/14 02:42:05;;;;;;;;;;;3.60;99.90;;;;;;5116402;27;19956;-31
2024/01/14 02:44:32;;;;;;;;;;;3.50;99.90;;;;;;5114992;27;19927;-33
2024/01/14 02:46:59;;;;;;;;;;;3.60;99.90;;;;;;5133066;27;19923;-33
2024/01/14 02:49:25;;;;;;;;;;;3.60;99.90;;;;;;5112438;27;19923;-35
2024/01/14 02:51:52;;;;;;;;;;;3.60;99.90;;;;;;5113769;27;20009;-33
2024/01/14 02:54:19;;;;;;;;;;;3.60;99.90;;;;;;5108791;27;19952;-31
2024/01/14 02:56:45;;;;;;;;;;;3.60;99.90;;;;;;5109004;27;20418;-32
2024/01/14 02:59:13;;;;;;;;;;;3.40;99.90;;;;;;5111163;27;19976;-32
2024/01/14 03:01:43;;;;;;;;;;;3.50;99.90;;;;;;5111694;27;19923;-33
2024/01/14 03:04:10;;;;;;;;;;;3.50;99.90;;;;;;5131702;27;20348;-32
2024/01/14 03:06:36;;;;;;;;;;;3.50;99.90;;;;;;5114595;27;19970;-32
2024/01/14 03:09:06;;;;;;;;;;;3.50;99.90;;;;;;5110719;27;19971;-32
2024/01/14 03:11:32;;;;;;;;;;;3.40;99.90;;;;;;5111335;27;19977;-33
2024/01/14 03:13:59;;;;;;;;;;;3.40;99.90;;;;;;5128168;27;19931;-33
2024/01/14 03:16:27;;;;;;;;;;;3.40;99.90;;;;;;5107623;27;19923;-33
2024/01/14 03:18:54;;;;;;;;;;;3.30;99.90;;;;;;5114674;27;20078;-32
2024/01/14 03:21:20;;;;;;;;;;;3.30;99.90;;;;;;5119966;27;19976;-33
2024/01/14 03:23:48;;;;;;;;;;;3.30;99.90;;;;;;5114794;27;19980;-33
2024/01/14 03:26:15;;;;;;;;;;;3.30;99.90;;;;;;5123206;27;20306;-33
2024/01/14 03:28:42;;;;;;;;;;;3.20;99.90;;;;;;5132378;27;19923;-33
2024/01/14 03:31:08;;;;;;;;;;;3.20;99.90;;;;;;5126942;27;19924;-34
2024/01/14 03:33:36;;;;;;;;;;;3.10;99.90;;;;;;5112222;27;19932;-33
2024/01/14 03:36:03;;;;;;;;;;;3.20;99.90;;;;;;5114337;27;19976;-33
2024/01/14 03:38:30;;;;;;;;;;;3.10;99.90;;;;;;5128420;27;20280;-33
2024/01/14 03:40:56;;;;;;;;;;;3.10;99.90;;;;;;5128363;27;20272;-32
2024/01/14 03:43:23;;;;;;;;;;;3.00;99.90;;;;;;5113164;27;20023;-32
2024/01/14 03:45:50;;;;;;;;;;;3.00;99.90;;;;;;5130205;27;19977;-32
2024/01/14 03:48:16;;;;;;;;;;;3.00;99.90;;;;;;5105504;27;19923;-34
2024/01/14 03:50:44;;;;;;;;;;;2.90;99.90;;;;;;5113477;27;20333;-33
2024/01/14 03:53:11;;;;;;;;;;;3.00;99.90;;;;;;5112033;27;20384;-33
2024/01/14 03:55:38;;;;;;;;;;;2.90;99.90;;;;;;5129963;27;19923;-36
2024/01/14 03:58:05;;;;;;;;;;;2.90;99.90;;;;;;5112631;27;20007;-34
2024/01/14 04:00:32;;;;;;;;;;;2.90;99.90;;;;;;5114196;27;19937;-33
2024/01/14 04:02:58;;;;;;;;;;;2.80;99.90;;;;;;5113923;27;19948;-33
2024/01/14 04:05:25;;;;;;;;;;;2.90;99.90;;;;;;5111931;27;19924;-33
2024/01/14 04:07:53;;;;;;;;;;;3.00;99.90;;;;;;5110709;28;20380;-32
2024/01/14 04:10:20;;;;;;;;;;;2.90;99.90;;;;;;5107476;27;20387;-33
2024/01/14 04:12:46;;;;;;;;;;;2.80;99.90;;;;;;5106135;27;19976;-32
2024/01/14 04:15:13;;;;;;;;;;;2.90;99.90;;;;;;5099161;28;19976;-35
2024/01/14 04:17:40;;;;;;;;;;;2.80;99.90;;;;;;5128735;27;19923;-33
2024/01/14 04:20:07;;;;;;;;;;;2.80;99.90;;;;;;5111213;27;19923;-33
2024/01/14 04:22:34;;;;;;;;;;;2.80;99.90;;;;;;5106477;28;19985;-33
2024/01/14 04:25:02;;;;;;;;;;;2.80;99.90;;;;;;5133080;27;19971;-33
2024/01/14 04:27:29;;;;;;;;;;;2.80;99.90;;;;;;5110507;27;19923;-32
2024/01/14 04:29:55;;;;;;;;;;;2.80;99.90;;;;;;5110610;27;20456;-33
2024/01/14 04:32:25;;;;;;;;;;;2.90;99.90;;;;;;5113435;27;19923;-33
2024/01/14 04:34:52;;;;;;;;;;;2.80;99.90;;;;;;5114512;27;19924;-32
2024/01/14 04:37:18;;;;;;;;;;;2.80;99.90;;;;;;5132487;27;19970;-33
2024/01/14 04:39:45;;;;;;;;;;;2.80;99.90;;;;;;5114339;27;19927;-33
2024/01/14 04:42:13;;;;;;;;;;;2.80;99.90;;;;;;5113468;28;20024;-32
2024/01/14 04:44:39;;;;;;;;;;;2.80;99.90;;;;;;5130021;28;19977;-34
2024/01/14 04:47:06;;;;;;;;;;;2.80;99.90;;;;;;5108322;28;19927;-33
2024/01/14 04:49:33;;;;;;;;;;;2.80;99.90;;;;;;5112764;28;19923;-33
2024/01/14 04:52:00;;;;;;;;;;;2.80;99.90;;;;;;5108458;28;19985;-33
2024/01/14 04:54:27;;;;;;;;;;;2.90;99.90;;;;;;5101606;28;19927;-33
2024/01/14 04:56:54;;;;;;;;;;;2.90;99.90;;;;;;5122171;28;19932;-33
2024/01/14 04:59:22;;;;;;;;;;;2.90;99.90;;;;;;5131299;28;19984;-33
2024/01/14 05:01:48;;;;;;;;;;;2.90;99.90;;;;;;5112675;28;19923;-33
2024/01/14 05:04:15;;;;;;;;;;;2.90;99.90;;;;;;5113185;28;19931;-33
2024/01/14 05:06:41;;;;;;;;;;;3.00;99.90;;;;;;5107193;28;19928;-32
2024/01/14 05:09:08;;;;;;;;;;;3.00;99.90;;;;;;5107196;28;20367;-33
2024/01/14 05:11:35;;;;;;;;;;;3.00;99.90;;;;;;5110198;28;19932;-34
2024/01/14 05:14:01;;;;;;;;;;;3.00;99.90;;;;;;5110350;28;20465;-33
2024/01/14 05:16:29;;;;;;;;;;;3.00;99.90;;;;;;5112458;28;19972;-33
2024/01/14 05:18:56;;;;;;;;;;;2.90;99.90;;;;;;5094827;28;20388;-33
2024/01/14 05:21:23;;;;;;;;;;;3.00;99.90;;;;;;5128587;28;20303;-32
2024/01/14 05:23:50;;;;;;;;;;;2.90;99.90;;;;;;5113772;28;19927;-32
2024/01/14 05:26:17;;;;;;;;;;;2.90;99.90;;;;;;5105296;28;20039;-32
2024/01/14 05:28:44;;;;;;;;;;;2.90;99.90;;;;;;5124937;28;19978;-32
2024/01/14 05:31:10;;;;;;;;;;;2.90;99.90;;;;;;5131278;27;20448;-31
2024/01/14 05:33:38;;;;;;;;;;;2.80;99.90;;;;;;5132407;27;19976;-32
2024/01/14 05:36:05;;;;;;;;;;;2.80;99.90;;;;;;5112093;27;19967;-33
2024/01/14 05:38:32;;;;;;;;;;;2.80;99.90;;;;;;5112680;27;20168;-33
2024/01/14 05:40:58;;;;;;;;;;;2.80;99.90;;;;;;5111415;27;19986;-34
2024/01/14 05:43:25;;;;;;;;;;;2.70;99.90;;;;;;5112638;28;19984;-34
2024/01/14 05:45:52;;;;;;;;;;;2.70;99.90;;;;;;5109004;27;19923;-32
2024/01/14 05:48:18;;;;;;;;;;;2.70;99.90;;;;;;5115742;27;20336;-33
2024/01/14 05:50:46;;;;;;;;;;;2.70;99.90;;;;;;5117474;27;20379;-32
2024/01/14 05:53:13;;;;;;;;;;;2.70;99.90;;;;;;5109334;27;19923;-35
2024/01/14 05:55:40;;;;;;;;;;;2.70;99.90;;;;;;5110681;27;19923;-33
2024/01/14 05:58:07;;;;;;;;;;;2.70;99.90;;;;;;5115344;27;19923;-34
2024/01/14 06:00:34;;;;;;;;;;;2.70;99.90;;;;;;5117006;27;19923;-34
2024/01/14 06:03:00;;;;;;;;;;;2.70;99.90;;;;;;5113660;27;20062;-34
2024/01/14 06:05:27;;;;;;;;;;;2.80;99.90;;;;;;5115518;27;19969;-33
2024/01/14 06:07:55;;;;;;;;;;;2.80;99.90;;;;;;5113049;27;19935;-33
2024/01/14 06:10:22;;;;;;;;;;;2.80;99.90;;;;;;5129138;27;19923;-33
2024/01/14 06:12:48;;;;;;;;;;;2.80;99.90;;;;;;5107346;27;20416;-33
2024/01/14 06:15:15;;;;;;;;;;;2.80;99.90;;;;;;5112083;27;19923;-35
2024/01/14 06:17:41;;;;;;;;;;;2.80;99.90;;;;;;5100220;27;19953;-32
2024/01/14 06:20:09;;;;;;;;;;;2.90;99.90;;;;;;5132827;27;19927;-33
2024/01/14 06:22:36;;;;;;;;;;;2.80;99.90;;;;;;5131305;27;19935;-34
2024/01/14 06:25:04;;;;;;;;;;;2.80;99.90;;;;;;5107773;27;20007;-33
2024/01/14 06:27:30;;;;;;;;;;;2.80;99.90;;;;;;5136035;27;19923;-33
2024/01/14 06:29:57;;;;;;;;;;;2.90;99.90;;;;;;5114618;27;19928;-33
2024/01/14 06:32:24;;;;;;;;;;;2.90;99.90;;;;;;5128594;27;20375;-33
2024/01/14 06:34:50;;;;;;;;;;;2.90;99.90;;;;;;5114418;27;19989;-33
2024/01/14 06:37:17;;;;;;;;;;;2.90;99.90;;;;;;5135485;27;19976;-33
2024/01/14 06:39:43;;;;;;;;;;;3.00;99.90;;;;;;5109932;27;19993;-32
2024/01/14 06:42:11;;;;;;;;;;;3.00;99.90;;;;;;5112534;28;20495;-35
2024/01/14 06:44:38;;;;;;;;;;;3.00;99.90;;;;;;5135353;27;19963;-35
2024/01/14 06:47:05;;;;;;;;;;;2.90;99.90;;;;;;5114449;27;19924;-33
2024/01/14 06:49:31;;;;;;;;;;;2.90;99.90;;;;;;5113540;27;19967;-33
2024/01/14 06:51:58;;;;;;;;;;;3.00;99.90;;;;;;5104094;28;19924;-32
2024/01/14 06:54:25;;;;;;;;;;;3.00;99.90;;;;;;5106323;27;20416;-32
2024/01/14 06:56:51;;;;;;;;;;;3.00;99.90;;;;;;5115783;27;19980;-32
2024/01/14 06:59:21;;;;;;;;;;;3.00;99.90;;;;;;5110416;27;19974;-32
2024/01/14 07:01:48;;;;;;;;;;;2.90;99.90;;;;;;5114763;27;19925;-33
2024/01/14 07:04:15;;;;;;;;;;;2.90;99.90;;;;;;5108084;28;19966;-31
2024/01/14 07:06:42;;;;;;;;;;;2.90;99.90;;;;;;5105049;27;19923;-32
2024/01/14 07:09:10;;;;;;;;;;;2.90;99.90;;;;;;5130424;27;19931;-32
2024/01/14 07:11:37;;;;;;;;;;;2.90;99.90;;;;;;5113064;27;19928;-32
2024/01/14 07:14:03;;;;;;;;;;;2.90;99.90;;;;;;5114224;27;20375;-33
2024/01/14 07:16:31;;;;;;;;;;;2.90;99.90;;;;;;5133224;27;19924;-32
2024/01/14 07:18:58;;;;;;;;;;;2.90;99.90;;;;;;5113707;27;19974;-32
2024/01/14 07:21:25;;;;;;;;;;;2.80;99.90;;;;;;5113677;27;19923;-33
2024/01/14 07:23:52;;;;;;;;;;;2.80;99.90;;;;;;5115069;27;19932;-34
2024/01/14 07:26:18;;;;;;;;;;;2.80;99.90;;;;;;5113423;27;20019;-32
2024/01/14 07:28:45;;;;;;;;;;;2.70;99.90;;;;;;5109014;27;19969;-33
2024/01/14 07:31:12;;;;;;;;;;;2.80;99.90;;;;;;5111609;27;19930;-33
2024/01/14 07:33:41;;;;;;;;;;;2.70;99.90;;;;;;5127926;27;20285;-32
2024/01/14 07:36:08;;;;;;;;;;;2.80;99.90;;;;;;5111714;27;19930;-33
2024/01/14 07:38:34;;;;;;;;;;;2.80;99.90;;;;;;5113645;27;19992;-32
2024/01/14 07:41:01;;;;;;;;;;;2.80;99.90;;;;;;5133554;27;19976;-32
2024/01/14 07:43:27;;;;;;;;;;;2.70;99.90;;;;;;5111968;27;19924;-33
2024/01/14 07:45:54;;;;;;;;;;;2.80;99.90;;;;;;5128989;27;20377;-32
2024/01/14 07:48:21;;;;;;;;;;;2.80;99.90;;;;;;5126130;27;19976;-35
2024/01/14 07:50:49;;;;;;;;;;;2.80;99.90;;;;;;5128780;27;19931;-34
2024/01/14 07:53:16;;;;;;;;;;;2.80;99.90;;;;;;5108717;27;20019;-31
2024/01/14 07:55:43;;;;;;;;;;;2.90;99.90;;;;;;5108859;27;19927;-32
2024/01/14 07:58:11;;;;;;;;;;;2.90;99.90;;;;;;5123316;27;19927;-32
2024/01/14 08:00:38;;;;;;;;;;;2.90;99.90;;;;;;5105579;27;20460;-34
2024/01/14 08:03:04;;;;;;;;;;;2.90;99.90;;;;;;5106160;27;19927;-33
2024/01/14 08:05:31;;;;;;;;;;;2.90;99.90;;;;;;5107783;27;19982;-32
2024/01/14 08:07:59;;;;;;;;;;;2.90;99.90;;;;;;5110469;27;19923;-32
2024/01/14 08:10:26;;;;;;;;;;;3.00;99.90;;;;;;5127152;27;19924;-34
2024/01/14 08:12:52;;;;;;;;;;;2.90;99.90;;;;;;5107592;27;19971;-32
2024/01/14 08:15:19;;;;;;;;;;;3.00;99.90;;;;;;5110420;27;19954;-33
2024/01/14 08:17:46;;;;;;;;;;;3.00;99.90;;;;;;5107014;28;19988;-32
2024/01/14 08:20:12;;;;;;;;;;;3.10;99.90;;;;;;5108634;27;20371;-33
2024/01/14 08:22:39;;;;;;;;;;;3.00;99.90;;;;;;5124078;27;19945;-32
2024/01/14 08:25:09;;;;;;;;;;;3.00;99.90;;;;;;5110106;27;20384;-34
2024/01/14 08:27:36;;;;;;;;;;;3.10;99.90;;;;;;5128077;27;20020;-32
2024/01/14 08:30:02;;;;;;;;;;;3.10;99.90;;;;;;5110399;28;19977;-33
2024/01/14 08:32:30;;;;;;;;;;;3.10;99.90;;;;;;5112158;27;19998;-32
2024/01/14 08:34:57;;;;;;;;;;;3.10;99.90;;;;;;5111556;27;19924;-33
2024/01/14 08:37:24;;;;;;;;;;;3.20;99.90;;;;;;5112439;28;19976;-33
2024/01/14 08:39:50;;;;;;;;;;;3.20;99.90;;;;;;5110237;28;19923;-33
2024/01/14 08:42:18;;;;;;;;;;;3.20;99.90;;;;;;5111700;27;19923;-32
2024/01/14 08:44:45;;;;;;;;;;;3.20;99.90;;;;;;5131875;28;20336;-33
2024/01/14 08:47:12;;;;;;;;;;;3.30;99.90;;;;;;5111748;28;19935;-33
2024/01/14 08:49:40;;;;;;;;;;;3.20;99.90;;;;;;5103228;28;19966;-33
2024/01/14 08:52:08;;;;;;;;;;;3.20;99.90;;;;;;5100631;28;19966;-34
2024/01/14 08:54:34;;;;;;;;;;;3.20;99.90;;;;;;5120921;28;19935;-33
2024/01/14 08:57:01;;;;;;;;;;;3.20;99.90;;;;;;5121750;28;19962;-33
2024/01/14 08:59:29;;;;;;;;;;;3.20;99.90;;;;;;5122971;28;20334;-34
2024/01/14 09:01:55;;;;;;;;;;;3.20;99.90;;;;;;5106176;28;19983;-33
2024/01/14 09:04:22;;;;;;;;;;;3.20;99.90;;;;;;5113632;28;20445;-32
2024/01/14 09:06:49;;;;;;;;;;;3.20;99.90;;;;;;5101088;27;19968;-32
2024/01/14 09:09:16;;;;;;;;;;;3.20;99.90;;;;;;5105814;27;20276;-33
2024/01/14 09:11:45;;;;;;;;;;;3.20;99.90;;;;;;5103058;27;19931;-32
2024/01/14 09:14:12;;;;;;;;;;;3.30;99.90;;;;;;5110010;27;19932;-32
2024/01/14 09:16:40;;;;;;;;;;;3.20;99.90;;;;;;5106797;27;19927;-32
2024/01/14 09:19:07;;;;;;;;;;;3.20;99.90;;;;;;5108080;27;19967;-34
2024/01/14 09:21:33;;;;;;;;;;;3.30;99.90;;;;;;5109593;27;19923;-33
2024/01/14 09:24:00;;;;;;;;;;;3.30;99.90;;;;;;5110022;27;21717;-33
2024/01/14 09:26:27;;;;;;;;;;;3.30;99.90;;;;;;5122747;27;20276;-33
2024/01/14 09:28:54;;;;;;;;;;;3.30;99.90;;;;;;5106548;27;19963;-33
2024/01/14 09:31:21;;;;;;;;;;;3.40;99.90;;;;;;5128740;27;20652;-34
2024/01/14 09:33:49;;;;;;;;;;;3.40;99.90;;;;;;5104226;27;19927;-32
2024/01/14 09:36:16;;;;;;;;;;;3.50;99.90;;;;;;5109742;27;19923;-33
2024/01/14 09:38:42;;;;;;;;;;;3.50;99.90;;;;;;5105956;27;19999;-33
2024/01/14 09:41:11;;;;;;;;;;;3.50;99.90;;;;;;5119980;27;20548;-32
2024/01/14 09:43:38;;;;;;;;;;;3.60;99.90;;;;;;5106488;27;19924;-34
2024/01/14 09:46:05;;;;;;;;;;;3.60;99.90;;;;;;5125063;27;19976;-33
2024/01/14 09:48:32;;;;;;;;;;;3.70;99.90;;;;;;5103714;27;19932;-34
2024/01/14 09:51:00;;;;;;;;;;;3.70;99.90;;;;;;5127686;27;19924;-34
2024/01/14 09:53:28;;;;;;;;;;;3.80;99.90;;;;;;5134527;27;19935;-33
2024/01/14 09:55:54;;;;;;;;;;;3.80;99.90;;;;;;5116114;27;20409;-32
2024/01/14 09:58:21;;;;;;;;;;;3.90;99.90;;;;;;5116939;27;20359;-30
2024/01/14 10:00:48;;;;;;;;;;;3.90;99.90;;;;;;5116518;27;20010;-33
2024/01/14 10:03:14;;;;;;;;;;;3.90;99.90;;;;;;5118282;27;19952;-32
2024/01/14 10:05:41;;;;;;;;;;;3.90;99.90;;;;;;5133221;27;20374;-33
2024/01/14 10:08:09;;;;;;;;;;;4.00;99.90;;;;;;5128245;27;19923;-32
2024/01/14 10:10:36;;;;;;;;;;;3.90;99.90;;;;;;5117745;27;19924;-33
2024/01/14 10:13:03;;;;;;;;;;;3.90;99.90;;;;;;5132971;27;20335;-32
2024/01/14 10:15:31;;;;;;;;;;;3.90;99.90;;;;;;5116081;27;20283;-33
2024/01/14 10:17:58;;;;;;;;;;;3.90;99.90;;;;;;5112823;27;20010;-33
2024/01/14 10:20:24;;;;;;;;;;;3.80;99.90;;;;;;5111525;27;19967;-33
2024/01/14 10:22:51;;;;;;;;;;;3.90;99.90;;;;;;5113399;27;19976;-33
2024/01/14 10:25:19;;;;;;;;;;;3.90;99.90;;;;;;5115067;27;19931;-32
2024/01/14 10:27:46;;;;;;;;;;;3.90;99.90;;;;;;5115788;27;19931;-33
2024/01/14 10:30:11;;;;;;;;;;;4.00;99.90;;;;;;5105777;27;19992;-33
2024/01/14 10:32:38;;;;;;;;;;;4.00;99.90;;;;;;5108891;27;19963;-33
2024/01/14 10:35:07;;;;;;;;;;;4.10;99.90;;;;;;5112494;27;19985;-33
2024/01/14 10:37:35;;;;;;;;;;;4.10;99.90;;;;;;5107976;27;20411;-32
2024/01/14 10:40:02;;;;;;;;;;;4.20;99.90;;;;;;5113879;27;19931;-34
2024/01/14 10:42:31;;;;;;;;;;;4.10;99.90;;;;;;5114589;27;19930;-33
2024/01/14 10:44:58;;;;;;;;;;;4.20;99.90;;;;;;5102167;28;19924;-34
2024/01/14 10:47:25;;;;;;;;;;;4.20;99.90;;;;;;5111752;27;19923;-33
2024/01/14 10:49:51;;;;;;;;;;;4.20;99.90;;;;;;5104000;28;19984;-33
2024/01/14 10:52:18;;;;;;;;;;;4.30;99.90;;;;;;5117964;27;20337;-33
2024/01/14 10:54:45;;;;;;;;;;;4.30;99.90;;;;;;5133055;27;21287;-33
2024/01/14 10:57:14;;;;;;;;;;;4.40;99.90;;;;;;5103826;27;19927;-33
2024/01/14 10:59:42;;;;;;;;;;;4.50;99.90;;;;;;5129947;27;19924;-33
2024/01/14 11:02:12;;;;;;;;;;;4.50;99.90;;;;;;5124875;27;19924;-35
2024/01/14 11:04:38;;;;;;;;;;;4.50;99.90;;;;;;5105369;27;20000;-34
2024/01/14 11:07:05;;;;;;;;;;;4.40;99.90;;;;;;5112877;27;19989;-33
2024/01/14 11:09:32;;;;;;;;;;;4.60;99.90;;;;;;5105606;27;19979;-33
2024/01/14 11:12:02;;;;;;;;;;;4.50;99.90;;;;;;5107901;27;19958;-34
2024/01/14 11:14:30;;;;;;;;;;;4.50;99.90;;;;;;5124611;27;19923;-33
2024/01/14 11:17:00;;;;;;;;;;;4.60;99.90;;;;;;5110546;27;19988;-34
2024/01/14 11:19:29;;;;;;;;;;;4.60;99.90;;;;;;5109073;27;19950;-32
2024/01/14 11:21:57;;;;;;;;;;;4.60;99.90;;;;;;5112252;27;20003;-33
2024/01/14 11:24:24;;;;;;;;;;;4.60;99.90;;;;;;5109019;27;20393;-34
2024/01/14 11:26:51;;;;;;;;;;;4.60;99.90;;;;;;5108553;27;19931;-33
2024/01/14 11:29:30;;;;;;;;;;;4.70;99.90;;;;;;5126960;27;19970;-33
2024/01/14 11:32:08;;;;;;;;;;;4.70;99.90;;;;;;5114502;27;20333;-34
2024/01/14 11:34:54;;;;;;;;;;;4.80;99.90;;;;;;5110193;27;21007;-32
2024/01/14 11:37:39;;;;;;;;;;;4.80;99.90;;;;;;5097770;27;20290;-33
2024/01/14 11:40:11;;;;;;;;;;;4.80;99.90;;;;;;5128006;27;19930;-33
2024/01/14 11:42:37;;;;;;;;;;;4.80;99.90;;;;;;5132327;27;20302;-33
2024/01/14 11:45:04;;;;;;;;;;;4.80;99.90;;;;;;5111673;27;19924;-33
2024/01/14 11:47:37;;;;;;;;;;;4.80;99.90;;;;;;5110554;27;19975;-32
2024/01/14 11:50:03;;;;;;;;;;;4.80;99.90;;;;;;5104178;28;19924;-32
2024/01/14 11:52:30;;;;;;;;;;;4.80;99.90;;;;;;5103786;27;20331;-33
2024/01/14 11:54:56;;;;;;;;;;;4.80;99.90;;;;;;5106184;27;19923;-33
2024/01/14 11:57:23;;;;;;;;;;;4.90;99.90;;;;;;5097192;27;20523;-32
2024/01/14 11:59:50;;;;;;;;;;;4.80;99.90;;;;;;5114065;27;20013;-33
2024/01/14 12:02:17;;;;;;;;;;;4.90;99.90;;;;;;5105607;28;19935;-34
2024/01/14 12:04:45;;;;;;;;;;;4.80;99.90;;;;;;5105707;27;19995;-32
2024/01/14 12:07:11;;;;;;;;;;;4.90;99.90;;;;;;5112643;27;19976;-34
2024/01/14 12:09:38;;;;;;;;;;;4.90;99.90;;;;;;5107096;27;20375;-34
2024/01/14 12:12:07;;;;;;;;;;;4.80;99.90;;;;;;5107946;28;19974;-33
2024/01/14 12:14:37;;;;;;;;;;;4.80;99.90;;;;;;5098809;27;19931;-34
2024/01/14 12:17:07;;;;;;;;;;;4.80;99.90;;;;;;5111411;27;20371;-33
2024/01/14 12:19:34;;;;;;;;;;;4.80;99.90;;;;;;5117953;27;20436;-34
2024/01/14 12:22:02;;;;;;;;;;;4.80;99.90;;;;;;5111254;27;19954;-34
2024/01/14 12:24:29;;;;;;;;;;;4.80;99.90;;;;;;5103427;28;19980;-34
2024/01/14 12:26:57;;;;;;;;;;;4.80;99.90;;;;;;5123304;27;20359;-35
2024/01/14 12:29:24;;;;;;;;;;;4.70;99.90;;;;;;5111446;27;19924;-32
2024/01/14 12:31:51;;;;;;;;;;;4.70;99.90;;;;;;5126140;27;19931;-33
2024/01/14 12:34:17;;;;;;;;;;;4.80;99.90;;;;;;5101694;27;19986;-32
2024/01/14 12:36:44;;;;;;;;;;;4.80;99.90;;;;;;5114290;27;20332;-33
2024/01/14 12:39:12;;;;;;;;;;;4.80;99.90;;;;;;5126808;27;19932;-33
2024/01/14 12:41:39;;;;;;;;;;;4.80;99.90;;;;;;5107049;27;20022;-33
2024/01/14 12:44:06;;;;;;;;;;;4.90;99.90;;;;;;5104709;28;19924;-34
2024/01/14 12:46:33;;;;;;;;;;;4.90;99.90;;;;;;5112700;28;19924;-34
2024/01/14 12:49:04;;;;;;;;;;;4.90;99.90;;;;;;5105733;28;19924;-33
2024/01/14 12:51:30;;;;;;;;;;;4.90;99.90;;;;;;5108604;28;19924;-34
2024/01/14 12:53:57;;;;;;;;;;;4.90;99.90;;;;;;5105284;28;20375;-34
2024/01/14 12:56:25;;;;;;;;;;;4.90;99.90;;;;;;5109974;28;19927;-33
2024/01/14 12:58:53;;;;;;;;;;;4.90;99.90;;;;;;5111398;28;21749;-31
2024/01/14 13:01:20;;;;;;;;;;;4.90;99.90;;;;;;5123497;28;19924;-32
2024/01/14 13:03:47;;;;;;;;;;;4.90;99.90;;;;;;5111189;28;19973;-32
2024/01/14 13:06:13;;;;;;;;;;;5.00;99.90;;;;;;5105163;28;19928;-33
2024/01/14 13:08:40;;;;;;;;;;;5.00;99.90;;;;;;5103581;28;19924;-32
2024/01/14 13:11:06;;;;;;;;;;;5.00;99.90;;;;;;5101286;28;19936;-33
2024/01/14 13:13:37;;;;;;;;;;;5.00;99.90;;;;;;5113173;28;20066;-33
2024/01/14 13:16:04;;;;;;;;;;;5.00;99.90;;;;;;5130124;28;19924;-32
2024/01/14 13:18:31;;;;;;;;;;;5.00;99.90;;;;;;5121243;28;19992;-33
2024/01/14 13:20:57;;;;;;;;;;;5.00;99.90;;;;;;5102082;28;19968;-34
2024/01/14 13:23:24;;;;;;;;;;;5.00;99.90;;;;;;5100665;28;19927;-33
2024/01/14 13:25:51;;;;;;;;;;;4.90;99.90;;;;;;5108137;28;20387;-32
2024/01/14 13:28:21;;;;;;;;;;;5.00;99.90;;;;;;5105188;28;20019;-32
2024/01/14 13:30:49;;;;;;;;;;;5.00;99.90;;;;;;5105719;28;19931;-33
2024/01/14 13:33:16;;;;;;;;;;;5.00;99.90;;;;;;5112548;28;19923;-33
2024/01/14 13:35:42;;;;;;;;;;;5.00;99.90;;;;;;5100277;28;19976;-32
2024/01/14 13:38:09;;;;;;;;;;;4.90;99.90;;;;;;5127208;28;20039;-32
2024/01/14 13:40:36;;;;;;;;;;;4.90;99.90;;;;;;5107295;28;19964;-32
2024/01/14 13:43:03;;;;;;;;;;;4.90;99.90;;;;;;5111787;28;20386;-33
2024/01/14 13:45:31;;;;;;;;;;;4.90;99.90;;;;;;5128943;28;19976;-32
2024/01/14 13:47:59;;;;;;;;;;;4.90;99.90;;;;;;5105461;28;20006;-32
2024/01/14 13:50:25;;;;;;;;;;;4.90;99.90;;;;;;5112186;28;19969;-33
2024/01/14 13:52:52;;;;;;;;;;;4.90;99.90;;;;;;5110997;27;20244;-32
2024/01/14 13:55:19;;;;;;;;;;;4.90;99.90;;;;;;5105848;27;19971;-32
2024/01/14 13:57:47;;;;;;;;;;;4.90;99.90;;;;;;5111913;27;20367;-32
2024/01/14 14:00:14;;;;;;;;;;;4.90;99.90;;;;;;5126133;27;19952;-32
2024/01/14 14:02:41;;;;;;;;;;;4.80;99.90;;;;;;5125251;27;19969;-33
2024/01/14 14:05:09;;;;;;;;;;;4.90;99.90;;;;;;5115725;27;19977;-34
2024/01/14 14:07:36;;;;;;;;;;;4.90;99.90;;;;;;5114045;27;19923;-32
2024/01/14 14:10:03;;;;;;;;;;;4.90;99.90;;;;;;5101987;27;20050;-32
2024/01/14 14:12:29;;;;;;;;;;;4.80;99.90;;;;;;5110091;27;19984;-33
2024/01/14 14:14:56;;;;;;;;;;;4.80;99.90;;;;;;5132547;27;20388;-33
2024/01/14 14:17:23;;;;;;;;;;;4.80;99.90;;;;;;5115631;27;19930;-33
2024/01/14 14:19:50;;;;;;;;;;;4.70;99.90;;;;;;5111155;27;19973;-33
2024/01/14 14:22:18;;;;;;;;;;;4.70;99.90;;;;;;5126896;27;19923;-33
2024/01/14 14:24:44;;;;;;;;;;;4.70;99.90;;;;;;5112705;27;19984;-35
2024/01/14 14:27:13;;;;;;;;;;;4.70;99.90;;;;;;5114533;27;20451;-32
2024/01/14 14:29:39;;;;;;;;;;;4.60;99.90;;;;;;5097944;28;19924;-33